createdAt,value
2023-04-24T00:00:59.750Z,9.68
2023-04-24T00:03:30.319Z,11.32
2023-04-24T00:06:00.198Z,9.57
2023-04-24T00:08:29.212Z,10.33
2023-04-24T00:10:58.158Z,10.20
2023-04-24T00:13:29.486Z,10.32
2023-04-24T00:15:58.450Z,10.10
2023-04-24T00:18:27.381Z,10.38
2023-04-24T00:20:56.353Z,10.50
2023-04-24T00:23:25.218Z,10.60
2023-04-24T00:25:53.693Z,11.27
2023-04-24T00:28:22.573Z,9.70
2023-04-24T00:30:53.264Z,9.98
2023-04-24T00:33:22.144Z,10.95
2023-04-24T00:35:51.093Z,10.23
2023-04-24T00:38:19.946Z,10.75
2023-04-24T00:40:50.904Z,10.15
2023-04-24T00:43:19.997Z,10.40
2023-04-24T00:45:49.164Z,10.98
2023-04-24T00:48:19.510Z,10.50
2023-04-24T00:53:16.993Z,10.73
2023-04-24T00:55:45.513Z,10.57
2023-04-24T00:58:15.887Z,10.18
2023-04-24T01:00:46.158Z,9.68
2023-04-24T01:03:15.824Z,10.65
2023-04-24T01:05:46.573Z,10.18
2023-04-24T01:08:16.437Z,10.35
2023-04-24T01:10:47.144Z,10.95
2023-04-24T01:13:16.167Z,10.23
2023-04-24T01:15:47.319Z,10.30
2023-04-24T01:18:16.578Z,11.60
2023-04-24T01:20:47.904Z,9.50
2023-04-24T01:23:18.186Z,11.18
2023-04-24T01:25:46.892Z,11.93
2023-04-24T01:28:16.312Z,9.52
2023-04-24T01:30:45.861Z,9.77
2023-04-24T01:33:14.957Z,11.60
2023-04-24T01:35:43.950Z,10.60
2023-04-24T01:38:13.027Z,11.10
2023-04-24T01:40:43.218Z,10.70
2023-04-24T01:43:12.291Z,10.27
2023-04-24T01:45:41.185Z,10.60
2023-04-24T01:48:10.382Z,10.82
2023-04-24T01:50:39.363Z,11.73
2023-04-24T01:53:08.388Z,10.63
2023-04-24T01:55:38.280Z,9.70
2023-04-24T01:58:09.406Z,11.70
2023-04-24T02:00:38.492Z,9.52
2023-04-24T02:03:07.570Z,10.02
2023-04-24T02:05:36.647Z,10.82
2023-04-24T02:08:06.190Z,10.80
2023-04-24T02:10:35.012Z,10.68
2023-04-24T02:13:03.879Z,11.05
2023-04-24T02:15:34.163Z,11.55
2023-04-24T02:18:03.101Z,11.10
2023-04-24T02:20:36.466Z,12.52
2023-04-24T02:23:05.741Z,11.23
2023-04-24T02:25:34.234Z,10.85
2023-04-24T02:28:04.035Z,11.25
2023-04-24T02:30:34.358Z,11.68
2023-04-24T02:33:04.422Z,11.77
2023-04-24T02:35:33.615Z,11.68
2023-04-24T02:38:02.699Z,11.77
2023-04-24T02:40:31.359Z,11.05
2023-04-24T02:43:00.388Z,12.35
2023-04-24T02:45:29.296Z,11.23
2023-04-24T02:47:59.711Z,12.00
2023-04-24T02:52:57.284Z,11.80
2023-04-24T02:55:26.190Z,12.80
2023-04-24T02:57:55.275Z,11.60
2023-04-24T03:00:24.398Z,12.05
2023-04-24T03:02:54.916Z,12.00
2023-04-24T03:05:25.544Z,12.52
2023-04-24T03:07:54.479Z,12.30
2023-04-24T03:10:24.810Z,11.68
2023-04-24T03:12:53.863Z,11.93
2023-04-24T03:15:22.748Z,11.35
2023-04-24T03:17:51.682Z,11.60
2023-04-24T03:20:20.745Z,11.80
2023-04-24T03:22:53.178Z,11.52
2023-04-24T03:25:22.516Z,11.23
2023-04-24T03:27:51.340Z,11.13
2023-04-24T03:30:30.024Z,11.20
2023-04-24T03:33:02.029Z,11.40
2023-04-24T03:35:34.804Z,11.23
2023-04-24T03:38:08.064Z,11.30
2023-04-24T03:41:02.082Z,10.43
2023-04-24T03:43:57.581Z,10.75
2023-04-24T03:46:27.576Z,9.10
2023-04-24T03:49:00.546Z,10.55
2023-04-24T03:51:33.917Z,9.98
2023-04-24T03:54:21.095Z,11.77
2023-04-24T03:56:49.978Z,11.68
2023-04-24T03:59:19.313Z,11.02
2023-04-24T04:01:53.056Z,9.90
2023-04-24T04:04:23.310Z,11.30
2023-04-24T04:06:53.313Z,11.38
2023-04-24T04:09:24.249Z,11.57
2023-04-24T04:14:21.791Z,11.00
2023-04-24T04:16:52.547Z,11.20
2023-04-24T04:19:23.284Z,11.30
2023-04-24T04:21:54.536Z,10.55
2023-04-24T04:24:32.647Z,10.85
2023-04-24T04:27:02.505Z,12.55
2023-04-24T04:29:35.694Z,10.85
2023-04-24T04:32:07.370Z,12.07
2023-04-24T04:34:38.757Z,10.77
2023-04-24T04:37:08.694Z,11.60
2023-04-24T04:39:49.562Z,9.90
2023-04-24T04:42:22.183Z,9.07
2023-04-24T04:44:52.600Z,12.40
2023-04-24T04:47:27.697Z,8.98
2023-04-24T04:49:57.863Z,10.05
2023-04-24T04:52:29.488Z,11.45
2023-04-24T04:55:14.395Z,11.73
2023-04-24T04:58:02.614Z,9.05
2023-04-24T05:00:36.696Z,9.98
2023-04-24T05:03:20.754Z,11.13
2023-04-24T05:05:55.859Z,11.10
2023-04-24T05:08:27.521Z,11.23
2023-04-24T05:10:58.695Z,12.00
2023-04-24T05:13:39.413Z,10.25
2023-04-24T05:16:36.216Z,11.23
2023-04-24T05:19:05.191Z,9.90
2023-04-24T05:21:40.408Z,10.40
2023-04-24T05:24:10.483Z,11.68
2023-04-24T05:27:13.055Z,11.40
2023-04-24T05:29:43.486Z,11.75
2023-04-24T05:32:12.772Z,11.63
2023-04-24T05:34:41.224Z,11.95
2023-04-24T05:37:11.095Z,10.52
2023-04-24T05:39:42.303Z,10.15
2023-04-24T05:42:13.066Z,11.27
2023-04-24T05:47:11.200Z,10.15
2023-04-24T05:49:39.594Z,10.65
2023-04-24T05:52:10.002Z,12.00
2023-04-24T05:54:40.740Z,11.90
2023-04-24T05:57:09.933Z,11.90
2023-04-24T05:59:55.769Z,11.82
2023-04-24T06:02:25.122Z,11.50
2023-04-24T06:04:54.661Z,12.23
2023-04-24T06:07:23.928Z,12.10
2023-04-24T06:09:52.782Z,10.90
2023-04-24T06:12:21.914Z,12.32
2023-04-24T06:15:01.444Z,10.45
2023-04-24T06:17:50.853Z,10.30
2023-04-24T06:20:21.052Z,10.73
2023-04-24T06:22:49.470Z,10.73
2023-04-24T06:25:18.519Z,8.98
2023-04-24T06:27:47.496Z,10.15
2023-04-24T06:30:17.858Z,11.20
2023-04-24T06:32:47.106Z,10.48
2023-04-24T06:35:18.089Z,10.90
2023-04-24T06:37:46.673Z,9.23
2023-04-24T06:40:15.652Z,9.48
2023-04-24T06:42:44.485Z,9.90
2023-04-24T06:45:13.515Z,9.40
2023-04-24T06:47:44.548Z,9.95
2023-04-24T06:50:13.815Z,11.30
2023-04-24T06:52:43.047Z,10.07
2023-04-24T06:55:12.629Z,9.20
2023-04-24T06:57:41.655Z,8.63
2023-04-24T07:00:11.982Z,9.32
2023-04-24T07:02:41.019Z,9.15
2023-04-24T07:05:11.999Z,8.43
2023-04-24T07:07:41.368Z,9.50
2023-04-24T07:10:11.079Z,8.55
2023-04-24T07:12:40.140Z,9.60
2023-04-24T07:15:10.307Z,9.27
2023-04-24T07:20:11.677Z,8.38
2023-04-24T07:22:40.356Z,9.02
2023-04-24T07:25:10.169Z,8.88
2023-04-24T07:27:39.047Z,8.70
2023-04-24T07:30:08.343Z,8.77
2023-04-24T07:32:37.351Z,9.55
2023-04-24T07:35:06.819Z,9.35
2023-04-24T07:37:37.239Z,9.00
2023-04-24T07:40:06.897Z,8.93
2023-04-24T07:42:37.485Z,9.83
2023-04-24T07:45:07.658Z,8.93
2023-04-24T07:47:37.687Z,8.98
2023-04-24T07:52:36.616Z,8.95
2023-04-24T07:55:06.140Z,8.93
2023-04-24T07:57:35.026Z,9.52
2023-04-24T08:00:05.355Z,8.48
2023-04-24T08:02:40.372Z,9.00
2023-04-24T08:05:10.302Z,7.88
2023-04-24T08:07:40.657Z,9.40
2023-04-24T08:10:12.061Z,7.85
2023-04-24T08:12:41.392Z,9.48
2023-04-24T08:15:11.210Z,9.15
2023-04-24T08:17:40.323Z,10.02
2023-04-24T08:20:14.525Z,9.95
2023-04-24T08:22:48.299Z,9.00
2023-04-24T08:25:17.366Z,10.65
2023-04-24T08:27:46.218Z,11.07
2023-04-24T08:30:15.361Z,10.07
2023-04-24T08:32:44.163Z,8.25
2023-04-24T08:35:13.714Z,8.47
2023-04-24T08:37:42.410Z,7.38
2023-04-24T08:40:16.434Z,8.35
2023-04-24T08:42:45.662Z,9.13
2023-04-24T08:45:15.322Z,8.80
2023-04-24T08:47:45.277Z,8.75
2023-04-24T08:50:14.259Z,8.63
2023-04-24T08:52:44.344Z,9.20
2023-04-24T08:57:46.017Z,9.77
2023-04-24T09:00:15.922Z,8.30
2023-04-24T09:02:45.717Z,8.10
2023-04-24T09:05:16.164Z,8.98
2023-04-24T09:07:47.831Z,8.57
2023-04-24T09:10:18.395Z,8.82
2023-04-24T09:12:47.597Z,8.40
2023-04-24T09:15:16.783Z,8.52
2023-04-24T09:17:46.188Z,8.05
2023-04-24T09:20:15.257Z,8.43
2023-04-24T09:22:45.062Z,7.90
